Terminal Aerodrome Forecast
Issued by NWS St Louis, MO

Home | Current Version | Previous Version | Text Only | Print | Product List | Glossary On
Versions: 1 2 3 4 5 6 7 8 9 10 11 12 13 14 15 16 17 18
000
FTUS43 KLSX 140100 AAA
TAFCOU
TAF AMD
KCOU 140138Z 1402/1424 22016G26KT 5SM -SHRA VCTS OVC035CB
      TEMPO 1402/1404 2SM TSRA OVC015CB
     FM140400 25016G26KT P6SM OVC020
     FM140600 29016G26KT P6SM OVC010
     FM141500 34016G26KT P6SM OVC015
      TEMPO 1418/1422 5SM -RASN=

USA.gov is the U.S. government's official web portal to all federal, state and local government web resources and services.